sensor_id;sensor_type;location;lat;lon;timestamp;P1;durP1;ratioP1;P2;durP2;ratioP2
64225;SDS011;50545;56.064;26.178;2023-07-13T00:01:54;2.83;;;2.00;;
64225;SDS011;50545;56.064;26.178;2023-07-13T00:04:22;2.22;;;1.73;;
64225;SDS011;50545;56.064;26.178;2023-07-13T00:06:52;2.42;;;1.80;;
64225;SDS011;50545;56.064;26.178;2023-07-13T00:09:20;3.47;;;1.88;;
64225;SDS011;50545;56.064;26.178;2023-07-13T00:11:52;2.45;;;2.00;;
64225;SDS011;50545;56.064;26.178;2023-07-13T00:14:21;3.40;;;1.92;;
64225;SDS011;50545;56.064;26.178;2023-07-13T00:16:49;4.25;;;2.10;;
64225;SDS011;50545;56.064;26.178;2023-07-13T00:19:17;2.53;;;2.00;;
64225;SDS011;50545;56.064;26.178;2023-07-13T00:21:45;2.13;;;1.80;;
64225;SDS011;50545;56.064;26.178;2023-07-13T00:24:14;2.75;;;2.00;;
64225;SDS011;50545;56.064;26.178;2023-07-13T00:26:45;3.35;;;2.08;;
64225;SDS011;50545;56.064;26.178;2023-07-13T00:29:12;2.15;;;1.70;;
64225;SDS011;50545;56.064;26.178;2023-07-13T00:31:40;2.25;;;1.80;;
64225;SDS011;50545;56.064;26.178;2023-07-13T00:34:07;3.10;;;2.03;;
64225;SDS011;50545;56.064;26.178;2023-07-13T00:36:35;2.83;;;2.20;;
64225;SDS011;50545;56.064;26.178;2023-07-13T00:39:02;3.10;;;2.00;;
64225;SDS011;50545;56.064;26.178;2023-07-13T00:41:30;2.60;;;1.90;;
64225;SDS011;50545;56.064;26.178;2023-07-13T00:43:59;4.07;;;1.85;;
64225;SDS011;50545;56.064;26.178;2023-07-13T00:46:28;3.08;;;2.10;;
64225;SDS011;50545;56.064;26.178;2023-07-13T00:49:01;2.55;;;1.88;;
64225;SDS011;50545;56.064;26.178;2023-07-13T00:51:36;2.60;;;1.73;;
64225;SDS011;50545;56.064;26.178;2023-07-13T00:54:11;2.42;;;1.83;;
64225;SDS011;50545;56.064;26.178;2023-07-13T00:56:43;2.85;;;1.88;;
64225;SDS011;50545;56.064;26.178;2023-07-13T00:59:11;3.08;;;2.08;;
64225;SDS011;50545;56.064;26.178;2023-07-13T01:01:41;2.47;;;1.92;;
64225;SDS011;50545;56.064;26.178;2023-07-13T01:04:08;2.20;;;1.80;;
64225;SDS011;50545;56.064;26.178;2023-07-13T01:06:37;2.05;;;1.80;;
64225;SDS011;50545;56.064;26.178;2023-07-13T01:09:06;2.53;;;1.88;;
64225;SDS011;50545;56.064;26.178;2023-07-13T01:11:35;5.50;;;1.92;;
64225;SDS011;50545;56.064;26.178;2023-07-13T01:14:02;2.47;;;1.70;;
64225;SDS011;50545;56.064;26.178;2023-07-13T01:16:31;2.60;;;1.92;;
64225;SDS011;50545;56.064;26.178;2023-07-13T01:19:00;2.33;;;1.92;;
64225;SDS011;50545;56.064;26.178;2023-07-13T01:21:29;2.10;;;1.90;;
64225;SDS011;50545;56.064;26.178;2023-07-13T01:23:59;2.67;;;2.03;;
64225;SDS011;50545;56.064;26.178;2023-07-13T01:26:26;3.00;;;2.17;;
64225;SDS011;50545;56.064;26.178;2023-07-13T01:28:54;4.28;;;1.95;;
64225;SDS011;50545;56.064;26.178;2023-07-13T01:31:23;2.95;;;2.00;;
64225;SDS011;50545;56.064;26.178;2023-07-13T01:33:51;2.72;;;1.95;;
64225;SDS011;50545;56.064;26.178;2023-07-13T01:36:18;2.00;;;1.80;;
64225;SDS011;50545;56.064;26.178;2023-07-13T01:38:47;2.03;;;1.70;;
64225;SDS011;50545;56.064;26.178;2023-07-13T01:41:15;2.67;;;2.00;;
64225;SDS011;50545;56.064;26.178;2023-07-13T01:43:42;2.97;;;1.80;;
64225;SDS011;50545;56.064;26.178;2023-07-13T01:46:09;3.05;;;2.10;;
64225;SDS011;50545;56.064;26.178;2023-07-13T01:48:49;3.70;;;2.00;;
64225;SDS011;50545;56.064;26.178;2023-07-13T01:51:16;3.45;;;2.10;;
64225;SDS011;50545;56.064;26.178;2023-07-13T01:53:44;3.60;;;2.00;;
64225;SDS011;50545;56.064;26.178;2023-07-13T01:56:12;4.15;;;2.10;;
64225;SDS011;50545;56.064;26.178;2023-07-13T01:58:39;2.67;;;2.10;;
64225;SDS011;50545;56.064;26.178;2023-07-13T02:01:07;3.30;;;2.42;;
64225;SDS011;50545;56.064;26.178;2023-07-13T02:03:34;4.80;;;2.40;;
64225;SDS011;50545;56.064;26.178;2023-07-13T02:06:01;3.15;;;2.08;;
64225;SDS011;50545;56.064;26.178;2023-07-13T02:08:30;4.10;;;2.25;;
64225;SDS011;50545;56.064;26.178;2023-07-13T02:10:58;3.80;;;2.20;;
64225;SDS011;50545;56.064;26.178;2023-07-13T02:13:25;3.80;;;2.20;;
64225;SDS011;50545;56.064;26.178;2023-07-13T02:15:54;3.28;;;2.10;;
64225;SDS011;50545;56.064;26.178;2023-07-13T02:18:21;3.33;;;2.00;;
64225;SDS011;50545;56.064;26.178;2023-07-13T02:20:48;4.32;;;2.28;;
64225;SDS011;50545;56.064;26.178;2023-07-13T02:23:16;2.72;;;1.88;;
64225;SDS011;50545;56.064;26.178;2023-07-13T02:25:43;3.80;;;2.13;;
64225;SDS011;50545;56.064;26.178;2023-07-13T02:28:10;3.63;;;2.40;;
64225;SDS011;50545;56.064;26.178;2023-07-13T02:30:37;4.97;;;2.40;;
64225;SDS011;50545;56.064;26.178;2023-07-13T02:33:05;3.33;;;2.20;;
64225;SDS011;50545;56.064;26.178;2023-07-13T02:35:32;3.25;;;2.08;;
64225;SDS011;50545;56.064;26.178;2023-07-13T02:38:00;3.05;;;2.20;;
64225;SDS011;50545;56.064;26.178;2023-07-13T02:40:27;4.30;;;2.30;;
64225;SDS011;50545;56.064;26.178;2023-07-13T02:42:54;4.75;;;2.45;;
64225;SDS011;50545;56.064;26.178;2023-07-13T02:45:21;4.35;;;2.35;;
64225;SDS011;50545;56.064;26.178;2023-07-13T02:47:49;4.03;;;2.35;;
64225;SDS011;50545;56.064;26.178;2023-07-13T02:50:16;4.05;;;2.40;;
64225;SDS011;50545;56.064;26.178;2023-07-13T02:52:43;3.17;;;2.20;;
64225;SDS011;50545;56.064;26.178;2023-07-13T02:55:11;4.05;;;2.13;;
64225;SDS011;50545;56.064;26.178;2023-07-13T02:57:38;4.05;;;2.40;;
64225;SDS011;50545;56.064;26.178;2023-07-13T03:00:05;3.05;;;2.17;;
64225;SDS011;50545;56.064;26.178;2023-07-13T03:02:34;4.38;;;2.42;;
64225;SDS011;50545;56.064;26.178;2023-07-13T03:05:02;2.75;;;2.22;;
64225;SDS011;50545;56.064;26.178;2023-07-13T03:07:29;2.80;;;2.10;;
64225;SDS011;50545;56.064;26.178;2023-07-13T03:09:57;3.15;;;2.15;;
64225;SDS011;50545;56.064;26.178;2023-07-13T03:12:25;3.47;;;2.05;;
64225;SDS011;50545;56.064;26.178;2023-07-13T03:14:53;3.35;;;2.17;;
64225;SDS011;50545;56.064;26.178;2023-07-13T03:17:20;3.83;;;2.25;;
64225;SDS011;50545;56.064;26.178;2023-07-13T03:19:48;4.97;;;2.47;;
64225;SDS011;50545;56.064;26.178;2023-07-13T03:22:17;3.17;;;2.17;;
64225;SDS011;50545;56.064;26.178;2023-07-13T03:24:45;3.60;;;2.35;;
64225;SDS011;50545;56.064;26.178;2023-07-13T03:27:12;5.00;;;2.45;;
64225;SDS011;50545;56.064;26.178;2023-07-13T03:29:40;3.50;;;2.30;;
64225;SDS011;50545;56.064;26.178;2023-07-13T03:32:07;5.57;;;2.40;;
64225;SDS011;50545;56.064;26.178;2023-07-13T03:34:35;5.18;;;2.35;;
64225;SDS011;50545;56.064;26.178;2023-07-13T03:37:03;5.22;;;2.30;;
64225;SDS011;50545;56.064;26.178;2023-07-13T03:39:30;3.53;;;2.50;;
64225;SDS011;50545;56.064;26.178;2023-07-13T03:41:57;2.95;;;2.22;;
64225;SDS011;50545;56.064;26.178;2023-07-13T03:44:25;7.18;;;2.60;;
64225;SDS011;50545;56.064;26.178;2023-07-13T03:46:52;2.75;;;2.15;;
64225;SDS011;50545;56.064;26.178;2023-07-13T03:49:19;4.07;;;2.30;;
64225;SDS011;50545;56.064;26.178;2023-07-13T03:51:47;3.95;;;2.25;;
64225;SDS011;50545;56.064;26.178;2023-07-13T03:54:18;3.70;;;2.45;;
64225;SDS011;50545;56.064;26.178;2023-07-13T03:56:45;3.17;;;2.22;;
64225;SDS011;50545;56.064;26.178;2023-07-13T03:59:12;3.95;;;2.42;;
64225;SDS011;50545;56.064;26.178;2023-07-13T04:01:39;3.90;;;2.40;;
64225;SDS011;50545;56.064;26.178;2023-07-13T04:04:07;3.15;;;2.25;;
64225;SDS011;50545;56.064;26.178;2023-07-13T04:06:34;3.45;;;2.17;;
64225;SDS011;50545;56.064;26.178;2023-07-13T04:09:02;4.47;;;2.85;;
64225;SDS011;50545;56.064;26.178;2023-07-13T04:11:32;3.90;;;2.60;;
64225;SDS011;50545;56.064;26.178;2023-07-13T04:14:00;3.83;;;2.50;;
64225;SDS011;50545;56.064;26.178;2023-07-13T04:16:27;4.60;;;2.60;;
64225;SDS011;50545;56.064;26.178;2023-07-13T04:18:55;4.07;;;2.63;;
64225;SDS011;50545;56.064;26.178;2023-07-13T04:21:28;4.60;;;2.70;;
64225;SDS011;50545;56.064;26.178;2023-07-13T04:23:56;4.40;;;2.92;;
64225;SDS011;50545;56.064;26.178;2023-07-13T04:26:24;5.00;;;2.50;;
64225;SDS011;50545;56.064;26.178;2023-07-13T04:28:52;4.05;;;2.75;;
64225;SDS011;50545;56.064;26.178;2023-07-13T04:31:19;4.88;;;2.83;;
64225;SDS011;50545;56.064;26.178;2023-07-13T04:33:47;4.63;;;2.88;;
64225;SDS011;50545;56.064;26.178;2023-07-13T04:36:15;3.92;;;2.92;;
64225;SDS011;50545;56.064;26.178;2023-07-13T04:38:43;5.97;;;2.70;;
64225;SDS011;50545;56.064;26.178;2023-07-13T04:41:13;6.97;;;3.22;;
64225;SDS011;50545;56.064;26.178;2023-07-13T04:43:41;4.38;;;2.65;;
64225;SDS011;50545;56.064;26.178;2023-07-13T04:46:11;5.10;;;3.20;;
64225;SDS011;50545;56.064;26.178;2023-07-13T04:48:41;5.03;;;3.17;;
64225;SDS011;50545;56.064;26.178;2023-07-13T04:51:08;4.50;;;2.85;;
64225;SDS011;50545;56.064;26.178;2023-07-13T04:53:35;6.55;;;3.30;;
64225;SDS011;50545;56.064;26.178;2023-07-13T04:56:03;4.60;;;2.85;;
64225;SDS011;50545;56.064;26.178;2023-07-13T04:58:31;5.93;;;3.58;;
64225;SDS011;50545;56.064;26.178;2023-07-13T05:01:05;5.38;;;3.50;;
64225;SDS011;50545;56.064;26.178;2023-07-13T05:03:33;5.45;;;3.20;;
64225;SDS011;50545;56.064;26.178;2023-07-13T05:06:03;5.60;;;3.38;;
64225;SDS011;50545;56.064;26.178;2023-07-13T05:10:59;4.75;;;3.20;;
64225;SDS011;50545;56.064;26.178;2023-07-13T05:13:28;4.05;;;2.90;;
64225;SDS011;50545;56.064;26.178;2023-07-13T05:15:58;4.82;;;3.13;;
64225;SDS011;50545;56.064;26.178;2023-07-13T05:18:28;5.85;;;3.40;;
64225;SDS011;50545;56.064;26.178;2023-07-13T05:20:57;4.60;;;3.17;;
64225;SDS011;50545;56.064;26.178;2023-07-13T05:23:26;5.88;;;3.50;;
64225;SDS011;50545;56.064;26.178;2023-07-13T05:25:53;4.80;;;3.10;;
64225;SDS011;50545;56.064;26.178;2023-07-13T05:28:20;7.50;;;4.03;;
64225;SDS011;50545;56.064;26.178;2023-07-13T05:30:48;6.68;;;3.35;;
64225;SDS011;50545;56.064;26.178;2023-07-13T05:33:16;5.72;;;3.80;;
64225;SDS011;50545;56.064;26.178;2023-07-13T05:35:44;7.00;;;3.67;;
64225;SDS011;50545;56.064;26.178;2023-07-13T05:38:11;5.85;;;3.63;;
64225;SDS011;50545;56.064;26.178;2023-07-13T05:40:38;7.85;;;3.70;;
64225;SDS011;50545;56.064;26.178;2023-07-13T05:43:06;7.05;;;4.60;;
64225;SDS011;50545;56.064;26.178;2023-07-13T05:45:33;9.73;;;3.97;;
64225;SDS011;50545;56.064;26.178;2023-07-13T05:48:00;6.28;;;3.95;;
64225;SDS011;50545;56.064;26.178;2023-07-13T05:50:28;9.18;;;4.68;;
64225;SDS011;50545;56.064;26.178;2023-07-13T05:52:55;7.88;;;5.30;;
64225;SDS011;50545;56.064;26.178;2023-07-13T05:55:23;9.50;;;5.07;;
64225;SDS011;50545;56.064;26.178;2023-07-13T05:57:50;8.75;;;4.70;;
64225;SDS011;50545;56.064;26.178;2023-07-13T06:00:18;8.23;;;5.18;;
64225;SDS011;50545;56.064;26.178;2023-07-13T06:02:45;10.05;;;5.80;;
64225;SDS011;50545;56.064;26.178;2023-07-13T06:05:12;6.72;;;4.28;;
64225;SDS011;50545;56.064;26.178;2023-07-13T06:07:40;8.02;;;4.88;;
64225;SDS011;50545;56.064;26.178;2023-07-13T06:10:08;6.90;;;4.68;;
64225;SDS011;50545;56.064;26.178;2023-07-13T06:12:36;8.50;;;5.30;;
64225;SDS011;50545;56.064;26.178;2023-07-13T06:15:03;6.72;;;4.72;;
64225;SDS011;50545;56.064;26.178;2023-07-13T06:17:31;9.93;;;5.50;;
64225;SDS011;50545;56.064;26.178;2023-07-13T06:19:58;8.73;;;4.70;;
64225;SDS011;50545;56.064;26.178;2023-07-13T06:22:25;6.60;;;4.22;;
64225;SDS011;50545;56.064;26.178;2023-07-13T06:24:53;7.72;;;5.90;;
64225;SDS011;50545;56.064;26.178;2023-07-13T06:27:20;7.22;;;4.80;;
64225;SDS011;50545;56.064;26.178;2023-07-13T06:29:47;9.00;;;5.68;;
64225;SDS011;50545;56.064;26.178;2023-07-13T06:32:14;6.97;;;4.88;;
64225;SDS011;50545;56.064;26.178;2023-07-13T06:34:41;7.65;;;5.43;;
64225;SDS011;50545;56.064;26.178;2023-07-13T06:37:09;7.45;;;5.28;;
64225;SDS011;50545;56.064;26.178;2023-07-13T06:39:36;7.88;;;4.85;;
64225;SDS011;50545;56.064;26.178;2023-07-13T06:42:04;7.78;;;5.10;;
64225;SDS011;50545;56.064;26.178;2023-07-13T06:44:32;7.53;;;4.95;;
64225;SDS011;50545;56.064;26.178;2023-07-13T06:46:59;8.13;;;4.82;;
64225;SDS011;50545;56.064;26.178;2023-07-13T06:49:26;8.45;;;5.15;;
64225;SDS011;50545;56.064;26.178;2023-07-13T06:51:54;8.55;;;5.45;;
64225;SDS011;50545;56.064;26.178;2023-07-13T06:54:21;8.35;;;5.32;;
64225;SDS011;50545;56.064;26.178;2023-07-13T06:56:48;9.57;;;5.28;;
64225;SDS011;50545;56.064;26.178;2023-07-13T06:59:15;7.35;;;5.18;;
64225;SDS011;50545;56.064;26.178;2023-07-13T07:01:42;9.07;;;5.97;;
64225;SDS011;50545;56.064;26.178;2023-07-13T07:04:10;9.15;;;5.68;;
64225;SDS011;50545;56.064;26.178;2023-07-13T07:06:37;9.25;;;6.60;;
64225;SDS011;50545;56.064;26.178;2023-07-13T07:09:05;7.28;;;5.20;;
64225;SDS011;50545;56.064;26.178;2023-07-13T07:11:32;8.05;;;5.40;;
64225;SDS011;50545;56.064;26.178;2023-07-13T07:13:59;9.48;;;6.78;;
64225;SDS011;50545;56.064;26.178;2023-07-13T07:16:26;9.65;;;6.38;;
64225;SDS011;50545;56.064;26.178;2023-07-13T07:18:53;8.55;;;5.90;;
64225;SDS011;50545;56.064;26.178;2023-07-13T07:21:21;7.78;;;4.65;;
64225;SDS011;50545;56.064;26.178;2023-07-13T07:23:49;9.40;;;5.60;;
64225;SDS011;50545;56.064;26.178;2023-07-13T07:26:18;8.38;;;5.93;;
64225;SDS011;50545;56.064;26.178;2023-07-13T07:28:48;10.50;;;5.78;;
64225;SDS011;50545;56.064;26.178;2023-07-13T07:31:36;8.15;;;5.70;;
64225;SDS011;50545;56.064;26.178;2023-07-13T07:34:06;9.43;;;6.80;;
64225;SDS011;50545;56.064;26.178;2023-07-13T07:36:34;9.52;;;5.82;;
64225;SDS011;50545;56.064;26.178;2023-07-13T07:39:04;9.13;;;6.35;;
64225;SDS011;50545;56.064;26.178;2023-07-13T07:41:31;10.00;;;6.20;;
64225;SDS011;50545;56.064;26.178;2023-07-13T07:44:01;10.38;;;6.07;;
64225;SDS011;50545;56.064;26.178;2023-07-13T07:46:30;8.07;;;5.40;;
64225;SDS011;50545;56.064;26.178;2023-07-13T07:48:57;8.52;;;4.90;;
64225;SDS011;50545;56.064;26.178;2023-07-13T07:51:24;7.43;;;4.93;;
64225;SDS011;50545;56.064;26.178;2023-07-13T07:53:52;9.00;;;5.35;;
64225;SDS011;50545;56.064;26.178;2023-07-13T07:56:20;9.75;;;5.22;;
64225;SDS011;50545;56.064;26.178;2023-07-13T07:58:50;7.10;;;5.00;;
64225;SDS011;50545;56.064;26.178;2023-07-13T08:01:20;9.45;;;5.60;;
64225;SDS011;50545;56.064;26.178;2023-07-13T08:06:20;9.13;;;6.05;;
64225;SDS011;50545;56.064;26.178;2023-07-13T08:08:51;8.73;;;4.85;;
64225;SDS011;50545;56.064;26.178;2023-07-13T08:11:20;8.15;;;5.45;;
64225;SDS011;50545;56.064;26.178;2023-07-13T08:13:51;7.60;;;5.53;;
64225;SDS011;50545;56.064;26.178;2023-07-13T08:16:21;7.00;;;4.80;;
64225;SDS011;50545;56.064;26.178;2023-07-13T08:18:49;7.78;;;4.65;;
64225;SDS011;50545;56.064;26.178;2023-07-13T08:21:17;7.30;;;4.80;;
64225;SDS011;50545;56.064;26.178;2023-07-13T08:23:46;7.38;;;4.65;;
64225;SDS011;50545;56.064;26.178;2023-07-13T08:26:13;8.25;;;4.88;;
64225;SDS011;50545;56.064;26.178;2023-07-13T08:28:41;7.13;;;4.50;;
64225;SDS011;50545;56.064;26.178;2023-07-13T08:31:08;7.20;;;4.05;;
64225;SDS011;50545;56.064;26.178;2023-07-13T08:33:37;7.25;;;4.80;;
64225;SDS011;50545;56.064;26.178;2023-07-13T08:36:04;5.93;;;3.67;;
64225;SDS011;50545;56.064;26.178;2023-07-13T08:38:32;6.15;;;4.10;;
64225;SDS011;50545;56.064;26.178;2023-07-13T08:41:00;7.03;;;3.80;;
64225;SDS011;50545;56.064;26.178;2023-07-13T08:43:37;7.60;;;4.50;;
64225;SDS011;50545;56.064;26.178;2023-07-13T08:48:37;7.00;;;4.10;;
64225;SDS011;50545;56.064;26.178;2023-07-13T08:56:47;7.28;;;3.50;;
64225;SDS011;50545;56.064;26.178;2023-07-13T08:59:20;4.75;;;3.35;;
64225;SDS011;50545;56.064;26.178;2023-07-13T09:04:28;6.60;;;3.78;;
64225;SDS011;50545;56.064;26.178;2023-07-13T09:14:58;9.95;;;3.80;;
64225;SDS011;50545;56.064;26.178;2023-07-13T09:17:35;6.18;;;3.25;;
64225;SDS011;50545;56.064;26.178;2023-07-13T09:22:55;4.65;;;2.83;;
64225;SDS011;50545;56.064;26.178;2023-07-13T09:25:32;6.90;;;3.83;;
64225;SDS011;50545;56.064;26.178;2023-07-13T09:28:20;6.80;;;3.40;;
64225;SDS011;50545;56.064;26.178;2023-07-13T09:31:06;7.65;;;3.90;;
64225;SDS011;50545;56.064;26.178;2023-07-13T09:33:52;9.50;;;3.22;;
64225;SDS011;50545;56.064;26.178;2023-07-13T09:36:28;5.90;;;3.03;;
64225;SDS011;50545;56.064;26.178;2023-07-13T09:41:50;4.60;;;2.80;;
64225;SDS011;50545;56.064;26.178;2023-07-13T09:44:44;4.53;;;3.00;;
64225;SDS011;50545;56.064;26.178;2023-07-13T09:47:23;4.32;;;2.88;;
64225;SDS011;50545;56.064;26.178;2023-07-13T09:49:57;4.28;;;2.75;;
64225;SDS011;50545;56.064;26.178;2023-07-13T09:52:42;5.72;;;2.30;;
64225;SDS011;50545;56.064;26.178;2023-07-13T09:58:25;4.20;;;2.78;;
64225;SDS011;50545;56.064;26.178;2023-07-13T10:00:56;5.82;;;2.78;;
64225;SDS011;50545;56.064;26.178;2023-07-13T10:03:26;3.70;;;2.50;;
64225;SDS011;50545;56.064;26.178;2023-07-13T10:06:00;3.10;;;2.35;;
64225;SDS011;50545;56.064;26.178;2023-07-13T10:08:37;4.13;;;2.60;;
64225;SDS011;50545;56.064;26.178;2023-07-13T10:11:11;3.85;;;2.17;;
64225;SDS011;50545;56.064;26.178;2023-07-13T10:14:10;3.63;;;2.42;;
64225;SDS011;50545;56.064;26.178;2023-07-13T10:16:47;3.55;;;2.50;;
64225;SDS011;50545;56.064;26.178;2023-07-13T10:19:19;4.30;;;2.40;;
64225;SDS011;50545;56.064;26.178;2023-07-13T10:21:55;4.80;;;2.67;;
64225;SDS011;50545;56.064;26.178;2023-07-13T10:24:35;4.35;;;2.55;;
64225;SDS011;50545;56.064;26.178;2023-07-13T10:27:18;4.80;;;2.67;;
64225;SDS011;50545;56.064;26.178;2023-07-13T10:29:52;5.93;;;2.80;;
64225;SDS011;50545;56.064;26.178;2023-07-13T10:32:28;5.28;;;2.80;;
64225;SDS011;50545;56.064;26.178;2023-07-13T10:34:55;3.65;;;2.40;;
64225;SDS011;50545;56.064;26.178;2023-07-13T10:37:25;4.60;;;2.70;;
64225;SDS011;50545;56.064;26.178;2023-07-13T10:39:56;4.55;;;2.40;;
64225;SDS011;50545;56.064;26.178;2023-07-13T10:42:29;4.47;;;2.42;;
64225;SDS011;50545;56.064;26.178;2023-07-13T10:45:16;4.68;;;2.70;;
64225;SDS011;50545;56.064;26.178;2023-07-13T10:47:47;4.90;;;2.72;;
64225;SDS011;50545;56.064;26.178;2023-07-13T10:50:23;4.75;;;2.92;;
64225;SDS011;50545;56.064;26.178;2023-07-13T10:58:21;2.65;;;2.30;;
64225;SDS011;50545;56.064;26.178;2023-07-13T11:01:15;4.07;;;2.55;;
64225;SDS011;50545;56.064;26.178;2023-07-13T11:06:12;4.57;;;2.30;;
64225;SDS011;50545;56.064;26.178;2023-07-13T11:11:45;6.65;;;2.20;;
64225;SDS011;50545;56.064;26.178;2023-07-13T11:16:54;4.45;;;2.38;;
64225;SDS011;50545;56.064;26.178;2023-07-13T11:30:48;3.33;;;2.22;;
64225;SDS011;50545;56.064;26.178;2023-07-13T11:33:30;4.95;;;2.20;;
64225;SDS011;50545;56.064;26.178;2023-07-13T11:36:05;5.68;;;2.63;;
64225;SDS011;50545;56.064;26.178;2023-07-13T11:38:40;3.45;;;2.13;;
64225;SDS011;50545;56.064;26.178;2023-07-13T11:41:16;8.10;;;2.72;;
64225;SDS011;50545;56.064;26.178;2023-07-13T11:43:44;5.25;;;2.22;;
64225;SDS011;50545;56.064;26.178;2023-07-13T11:46:18;3.00;;;2.13;;
64225;SDS011;50545;56.064;26.178;2023-07-13T11:48:54;4.65;;;2.28;;
64225;SDS011;50545;56.064;26.178;2023-07-13T11:53:59;4.38;;;2.30;;
64225;SDS011;50545;56.064;26.178;2023-07-13T11:56:40;2.42;;;2.00;;
64225;SDS011;50545;56.064;26.178;2023-07-13T11:59:10;2.40;;;1.90;;
64225;SDS011;50545;56.064;26.178;2023-07-13T12:01:43;2.72;;;2.08;;
64225;SDS011;50545;56.064;26.178;2023-07-13T12:04:22;2.35;;;1.85;;
64225;SDS011;50545;56.064;26.178;2023-07-13T12:06:58;3.25;;;2.10;;
64225;SDS011;50545;56.064;26.178;2023-07-13T12:09:33;5.88;;;2.05;;
64225;SDS011;50545;56.064;26.178;2023-07-13T12:12:03;2.75;;;1.75;;
64225;SDS011;50545;56.064;26.178;2023-07-13T12:14:36;5.40;;;2.20;;
64225;SDS011;50545;56.064;26.178;2023-07-13T12:17:08;4.93;;;2.22;;
64225;SDS011;50545;56.064;26.178;2023-07-13T12:19:40;5.22;;;2.08;;
64225;SDS011;50545;56.064;26.178;2023-07-13T12:22:08;3.88;;;2.17;;
64225;SDS011;50545;56.064;26.178;2023-07-13T12:24:40;2.88;;;1.70;;
64225;SDS011;50545;56.064;26.178;2023-07-13T12:27:22;4.40;;;2.15;;
64225;SDS011;50545;56.064;26.178;2023-07-13T12:29:52;2.55;;;1.80;;
64225;SDS011;50545;56.064;26.178;2023-07-13T12:32:31;3.42;;;2.00;;
64225;SDS011;50545;56.064;26.178;2023-07-13T12:35:14;2.60;;;1.70;;
64225;SDS011;50545;56.064;26.178;2023-07-13T12:37:48;2.72;;;1.65;;
64225;SDS011;50545;56.064;26.178;2023-07-13T12:40:19;2.05;;;1.60;;
64225;SDS011;50545;56.064;26.178;2023-07-13T12:42:49;3.30;;;1.40;;
64225;SDS011;50545;56.064;26.178;2023-07-13T12:45:19;2.83;;;1.67;;
64225;SDS011;50545;56.064;26.178;2023-07-13T12:47:50;3.17;;;1.70;;
64225;SDS011;50545;56.064;26.178;2023-07-13T12:50:30;2.55;;;1.50;;
64225;SDS011;50545;56.064;26.178;2023-07-13T12:53:03;2.42;;;1.75;;
64225;SDS011;50545;56.064;26.178;2023-07-13T12:55:46;2.67;;;1.70;;
64225;SDS011;50545;56.064;26.178;2023-07-13T12:58:22;2.47;;;1.80;;
64225;SDS011;50545;56.064;26.178;2023-07-13T13:00:53;2.53;;;1.75;;
64225;SDS011;50545;56.064;26.178;2023-07-13T13:03:29;2.78;;;2.00;;
64225;SDS011;50545;56.064;26.178;2023-07-13T13:08:32;3.63;;;1.88;;
64225;SDS011;50545;56.064;26.178;2023-07-13T13:11:02;4.65;;;1.70;;
64225;SDS011;50545;56.064;26.178;2023-07-13T13:13:30;2.67;;;1.90;;
64225;SDS011;50545;56.064;26.178;2023-07-13T13:16:01;3.90;;;1.85;;
64225;SDS011;50545;56.064;26.178;2023-07-13T13:18:32;2.45;;;1.55;;
64225;SDS011;50545;56.064;26.178;2023-07-13T13:20:59;3.60;;;1.83;;
64225;SDS011;50545;56.064;26.178;2023-07-13T13:23:27;2.97;;;1.60;;
64225;SDS011;50545;56.064;26.178;2023-07-13T13:25:54;1.70;;;1.55;;
64225;SDS011;50545;56.064;26.178;2023-07-13T13:28:22;3.55;;;2.00;;
64225;SDS011;50545;56.064;26.178;2023-07-13T13:30:51;1.52;;;1.40;;
64225;SDS011;50545;56.064;26.178;2023-07-13T13:33:19;1.60;;;1.50;;
64225;SDS011;50545;56.064;26.178;2023-07-13T13:35:48;2.72;;;1.90;;
64225;SDS011;50545;56.064;26.178;2023-07-13T13:38:18;2.35;;;1.75;;
64225;SDS011;50545;56.064;26.178;2023-07-13T13:40:50;3.20;;;1.70;;
64225;SDS011;50545;56.064;26.178;2023-07-13T13:43:24;1.40;;;1.30;;
64225;SDS011;50545;56.064;26.178;2023-07-13T13:45:56;2.13;;;1.50;;
64225;SDS011;50545;56.064;26.178;2023-07-13T13:48:29;3.25;;;1.70;;
64225;SDS011;50545;56.064;26.178;2023-07-13T13:50:59;3.17;;;1.27;;
64225;SDS011;50545;56.064;26.178;2023-07-13T13:53:27;2.47;;;1.50;;
64225;SDS011;50545;56.064;26.178;2023-07-13T13:55:55;2.42;;;1.40;;
64225;SDS011;50545;56.064;26.178;2023-07-13T13:58:22;2.90;;;1.70;;
64225;SDS011;50545;56.064;26.178;2023-07-13T14:00:50;2.35;;;1.50;;
64225;SDS011;50545;56.064;26.178;2023-07-13T14:03:18;2.35;;;1.60;;
64225;SDS011;50545;56.064;26.178;2023-07-13T14:05:47;1.75;;;1.48;;
64225;SDS011;50545;56.064;26.178;2023-07-13T14:08:16;1.30;;;1.20;;
64225;SDS011;50545;56.064;26.178;2023-07-13T14:10:48;2.05;;;1.40;;
64225;SDS011;50545;56.064;26.178;2023-07-13T14:13:20;2.25;;;1.30;;
64225;SDS011;50545;56.064;26.178;2023-07-13T14:15:55;2.92;;;1.45;;
64225;SDS011;50545;56.064;26.178;2023-07-13T14:20:50;3.55;;;1.42;;
64225;SDS011;50545;56.064;26.178;2023-07-13T14:23:19;1.50;;;1.40;;
64225;SDS011;50545;56.064;26.178;2023-07-13T14:25:47;4.13;;;1.50;;
64225;SDS011;50545;56.064;26.178;2023-07-13T14:33:13;16.42;;;2.55;;
64225;SDS011;50545;56.064;26.178;2023-07-13T14:35:41;2.10;;;1.58;;
64225;SDS011;50545;56.064;26.178;2023-07-13T14:38:10;3.42;;;1.80;;
64225;SDS011;50545;56.064;26.178;2023-07-13T14:40:42;2.13;;;1.60;;
64225;SDS011;50545;56.064;26.178;2023-07-13T14:43:10;3.53;;;1.60;;
64225;SDS011;50545;56.064;26.178;2023-07-13T14:45:51;2.55;;;1.48;;
64225;SDS011;50545;56.064;26.178;2023-07-13T14:48:22;2.47;;;1.73;;
64225;SDS011;50545;56.064;26.178;2023-07-13T14:50:54;1.33;;;1.17;;
64225;SDS011;50545;56.064;26.178;2023-07-13T14:53:24;2.72;;;1.42;;
64225;SDS011;50545;56.064;26.178;2023-07-13T14:55:54;3.15;;;1.70;;
64225;SDS011;50545;56.064;26.178;2023-07-13T14:58:22;1.80;;;1.50;;
64225;SDS011;50545;56.064;26.178;2023-07-13T15:00:49;2.25;;;1.50;;
64225;SDS011;50545;56.064;26.178;2023-07-13T15:03:21;3.17;;;1.65;;
64225;SDS011;50545;56.064;26.178;2023-07-13T15:05:50;4.90;;;1.80;;
64225;SDS011;50545;56.064;26.178;2023-07-13T15:08:19;2.65;;;1.60;;
64225;SDS011;50545;56.064;26.178;2023-07-13T15:10:46;2.95;;;1.77;;
64225;SDS011;50545;56.064;26.178;2023-07-13T15:13:15;2.67;;;1.67;;
64225;SDS011;50545;56.064;26.178;2023-07-13T15:18:16;1.75;;;1.40;;
64225;SDS011;50545;56.064;26.178;2023-07-13T15:20:45;5.20;;;1.63;;
64225;SDS011;50545;56.064;26.178;2023-07-13T15:23:15;2.83;;;1.60;;
64225;SDS011;50545;56.064;26.178;2023-07-13T15:25:43;1.98;;;1.42;;
64225;SDS011;50545;56.064;26.178;2023-07-13T15:28:12;2.55;;;1.70;;
64225;SDS011;50545;56.064;26.178;2023-07-13T15:30:46;1.73;;;1.33;;
64225;SDS011;50545;56.064;26.178;2023-07-13T15:33:17;2.08;;;1.58;;
64225;SDS011;50545;56.064;26.178;2023-07-13T15:35:49;3.92;;;2.00;;
64225;SDS011;50545;56.064;26.178;2023-07-13T15:38:19;3.13;;;1.70;;
64225;SDS011;50545;56.064;26.178;2023-07-13T15:40:48;1.85;;;1.70;;
64225;SDS011;50545;56.064;26.178;2023-07-13T15:43:17;2.20;;;1.50;;
64225;SDS011;50545;56.064;26.178;2023-07-13T15:45:45;2.03;;;1.40;;
64225;SDS011;50545;56.064;26.178;2023-07-13T15:50:46;2.90;;;1.60;;
64225;SDS011;50545;56.064;26.178;2023-07-13T15:53:25;1.95;;;1.65;;
64225;SDS011;50545;56.064;26.178;2023-07-13T15:55:56;3.20;;;1.60;;
64225;SDS011;50545;56.064;26.178;2023-07-13T15:58:24;5.65;;;1.60;;
64225;SDS011;50545;56.064;26.178;2023-07-13T16:00:52;2.85;;;1.55;;
64225;SDS011;50545;56.064;26.178;2023-07-13T16:03:20;2.28;;;1.50;;
64225;SDS011;50545;56.064;26.178;2023-07-13T16:05:48;2.25;;;1.58;;